createdAt,value
2019-03-09T00:00:35.098Z,8.24
2019-03-09T00:01:35.610Z,8.18
2019-03-09T00:02:38.391Z,8.18
2019-03-09T00:03:38.839Z,8.18
2019-03-09T00:04:41.434Z,8.35
2019-03-09T00:05:46.854Z,8.17
2019-03-09T00:07:24.192Z,8.34
2019-03-09T00:08:24.665Z,8.17
2019-03-09T00:09:26.394Z,8.24
2019-03-09T00:10:27.549Z,8.21
2019-03-09T00:11:35.684Z,8.16
2019-03-09T00:12:36.137Z,8.14
2019-03-09T00:13:38.668Z,8.21
2019-03-09T00:14:39.140Z,8.16
2019-03-09T00:16:15.173Z,8.20
2019-03-09T00:17:15.628Z,8.17
2019-03-09T00:18:16.097Z,8.21
2019-03-09T00:19:16.594Z,8.28
2019-03-09T00:20:17.054Z,8.27
2019-03-09T00:21:17.511Z,8.11
2019-03-09T00:22:17.966Z,8.21
2019-03-09T00:23:18.415Z,8.23
2019-03-09T00:24:18.926Z,8.27
2019-03-09T00:25:19.483Z,8.26
2019-03-09T00:26:19.934Z,8.20
2019-03-09T00:27:29.125Z,8.17
2019-03-09T00:28:26.785Z,8.18
2019-03-09T00:29:27.264Z,8.11
2019-03-09T00:30:27.719Z,8.14
2019-03-09T00:31:28.174Z,8.26
2019-03-09T00:32:28.613Z,8.14
2019-03-09T00:33:29.090Z,8.17
2019-03-09T00:34:29.564Z,8.13
2019-03-09T00:35:30.270Z,8.21
2019-03-09T00:36:30.722Z,8.17
2019-03-09T00:37:31.176Z,8.16
2019-03-09T00:38:31.623Z,8.20
2019-03-09T00:39:32.096Z,8.14
2019-03-09T00:40:32.559Z,8.14
2019-03-09T00:41:33.020Z,8.11
2019-03-09T00:42:33.476Z,8.11
2019-03-09T00:43:33.946Z,8.17
2019-03-09T00:44:34.567Z,8.13
2019-03-09T00:45:35.026Z,8.09
2019-03-09T00:46:35.546Z,8.14
2019-03-09T00:47:36.093Z,8.13
2019-03-09T00:48:36.541Z,8.17
2019-03-09T00:49:36.998Z,8.17
2019-03-09T00:50:37.447Z,8.14
2019-03-09T00:51:37.916Z,8.14
2019-03-09T00:52:38.440Z,8.13
2019-03-09T00:53:39.074Z,8.08
2019-03-09T00:54:39.609Z,8.14
2019-03-09T00:55:40.062Z,8.03
2019-03-09T00:56:40.505Z,8.11
2019-03-09T00:57:40.959Z,8.14
2019-03-09T00:58:41.406Z,8.09
2019-03-09T00:59:41.862Z,8.14
2019-03-09T01:00:42.990Z,8.11
2019-03-09T01:01:48.424Z,8.11
2019-03-09T01:02:50.951Z,8.06
2019-03-09T01:03:51.669Z,8.05
2019-03-09T01:04:52.134Z,8.13
2019-03-09T01:05:52.575Z,7.99
2019-03-09T01:06:53.016Z,7.99
2019-03-09T01:07:53.523Z,8.09
2019-03-09T01:08:53.959Z,8.06
2019-03-09T01:09:55.072Z,7.99
2019-03-09T01:10:55.523Z,8.03
2019-03-09T01:11:55.980Z,8.13
2019-03-09T01:12:56.423Z,7.98
2019-03-09T01:13:56.869Z,8.02
2019-03-09T01:14:57.326Z,7.98
2019-03-09T01:15:57.797Z,8.03
2019-03-09T01:16:58.245Z,8.06
2019-03-09T01:17:58.698Z,8.05
2019-03-09T01:18:59.141Z,8.02
2019-03-09T01:20:04.596Z,7.98
2019-03-09T01:21:05.041Z,8.01
2019-03-09T01:22:05.508Z,7.93
2019-03-09T01:23:06.018Z,7.95
2019-03-09T01:24:06.469Z,7.96
2019-03-09T01:25:06.944Z,7.98
2019-03-09T01:26:07.397Z,8.03
2019-03-09T01:27:07.986Z,8.03
2019-03-09T01:28:08.425Z,8.01
2019-03-09T01:29:08.949Z,8.11
2019-03-09T01:30:09.420Z,8.09
2019-03-09T01:31:10.029Z,8.01
2019-03-09T01:32:10.473Z,8.01
2019-03-09T01:33:10.923Z,7.98
2019-03-09T01:34:11.382Z,7.99
2019-03-09T01:35:11.873Z,7.96
2019-03-09T01:36:12.337Z,8.02
2019-03-09T01:37:12.784Z,8.05
2019-03-09T01:38:13.242Z,8.05
2019-03-09T01:39:13.728Z,7.98
2019-03-09T01:40:14.201Z,7.93
2019-03-09T01:41:14.651Z,8.05
2019-03-09T01:42:15.096Z,8.02
2019-03-09T01:43:15.532Z,7.99
2019-03-09T01:44:15.976Z,7.93
2019-03-09T01:45:16.442Z,8.01
2019-03-09T01:46:16.883Z,7.99
2019-03-09T01:47:17.391Z,8.02
2019-03-09T01:48:17.841Z,7.98
2019-03-09T01:49:18.289Z,7.99
2019-03-09T01:50:18.749Z,7.96
2019-03-09T01:51:19.468Z,7.93
2019-03-09T01:52:19.922Z,7.98
2019-03-09T01:53:20.371Z,7.98
2019-03-09T01:54:20.829Z,7.98
2019-03-09T01:55:21.283Z,7.98
2019-03-09T01:56:21.729Z,7.99
2019-03-09T01:57:22.166Z,7.99
2019-03-09T01:58:22.618Z,7.91
2019-03-09T01:59:23.081Z,7.90
2019-03-09T02:00:23.549Z,7.99
2019-03-09T02:01:23.995Z,7.91
2019-03-09T02:02:24.439Z,7.96
2019-03-09T02:03:24.880Z,8.02
2019-03-09T02:04:25.319Z,7.90
2019-03-09T02:05:25.778Z,7.96
2019-03-09T02:06:26.216Z,7.95
2019-03-09T02:07:26.661Z,8.02
2019-03-09T02:08:27.104Z,7.83
2019-03-09T02:09:27.540Z,7.90
2019-03-09T02:10:28.013Z,7.84
2019-03-09T02:11:28.492Z,7.90
2019-03-09T02:12:29.695Z,7.91
2019-03-09T02:13:30.135Z,7.93
2019-03-09T02:14:30.585Z,7.84
2019-03-09T02:15:31.036Z,7.87
2019-03-09T02:16:31.474Z,7.84
2019-03-09T02:17:31.922Z,7.91
2019-03-09T02:18:32.379Z,7.87
2019-03-09T02:19:32.836Z,7.95
2019-03-09T02:20:33.310Z,7.88
2019-03-09T02:21:33.764Z,7.96
2019-03-09T02:22:34.212Z,7.96
2019-03-09T02:23:34.655Z,7.88
2019-03-09T02:24:35.107Z,7.90
2019-03-09T02:25:35.571Z,7.90
2019-03-09T02:26:36.014Z,7.88
2019-03-09T02:27:36.467Z,7.85
2019-03-09T02:28:36.954Z,7.99
2019-03-09T02:29:37.425Z,7.87
2019-03-09T02:30:37.902Z,7.96
2019-03-09T02:31:38.358Z,7.93
2019-03-09T02:32:39.015Z,7.96
2019-03-09T02:33:39.484Z,7.95
2019-03-09T02:34:39.941Z,7.99
2019-03-09T02:35:40.432Z,7.91
2019-03-09T02:36:40.889Z,7.87
2019-03-09T02:37:41.385Z,8.01
2019-03-09T02:38:41.825Z,7.91
2019-03-09T02:39:42.274Z,7.91
2019-03-09T02:40:42.746Z,7.90
2019-03-09T02:41:43.194Z,7.99
2019-03-09T02:42:43.645Z,7.96
2019-03-09T02:43:44.111Z,8.02
2019-03-09T02:44:44.562Z,8.03
2019-03-09T02:45:45.033Z,8.02
2019-03-09T02:46:45.484Z,8.01
2019-03-09T02:47:45.930Z,8.06
2019-03-09T02:48:46.413Z,7.95
2019-03-09T02:49:46.859Z,8.02
2019-03-09T02:50:47.330Z,7.99
2019-03-09T02:51:47.773Z,7.99
2019-03-09T02:52:48.250Z,8.08
2019-03-09T02:53:48.705Z,8.17
2019-03-09T02:54:49.145Z,8.05
2019-03-09T02:55:49.868Z,8.08
2019-03-09T02:56:50.362Z,8.05
2019-03-09T02:57:50.814Z,8.09
2019-03-09T02:58:51.255Z,8.09
2019-03-09T02:59:51.780Z,8.09
2019-03-09T03:00:52.245Z,8.14
2019-03-09T03:01:52.699Z,8.11
2019-03-09T03:02:53.161Z,8.13
2019-03-09T03:03:53.607Z,8.20
2019-03-09T03:04:54.057Z,8.16
2019-03-09T03:05:54.543Z,8.17
2019-03-09T03:06:54.989Z,8.13
2019-03-09T03:07:55.453Z,8.11
2019-03-09T03:08:56.968Z,8.16
2019-03-09T03:09:57.459Z,8.26
2019-03-09T03:10:57.994Z,8.24
2019-03-09T03:11:58.439Z,8.21
2019-03-09T03:13:03.856Z,8.28
2019-03-09T03:14:04.322Z,8.28
2019-03-09T03:15:05.787Z,8.17
2019-03-09T03:16:06.263Z,8.24
2019-03-09T03:17:06.736Z,8.16
2019-03-09T03:18:07.202Z,8.28
2019-03-09T03:19:07.657Z,8.20
2019-03-09T03:20:08.102Z,8.28
2019-03-09T03:21:08.579Z,8.36
2019-03-09T03:22:09.029Z,8.31
2019-03-09T03:23:09.450Z,8.23
2019-03-09T03:24:09.897Z,8.28
2019-03-09T03:25:10.371Z,8.27
2019-03-09T03:26:10.840Z,8.28
2019-03-09T03:27:11.313Z,8.32
2019-03-09T03:28:11.823Z,8.35
2019-03-09T03:29:12.345Z,8.28
2019-03-09T03:30:12.788Z,8.38
2019-03-09T03:31:13.254Z,8.38
2019-03-09T03:32:13.698Z,8.36
2019-03-09T03:33:14.180Z,8.49
2019-03-09T03:34:14.654Z,8.54
2019-03-09T03:35:15.123Z,8.39
2019-03-09T03:36:15.589Z,8.52
2019-03-09T03:37:16.043Z,8.45
2019-03-09T03:38:16.501Z,8.49
2019-03-09T03:39:16.952Z,8.49
2019-03-09T03:40:17.401Z,8.39
2019-03-09T03:41:18.951Z,8.49
2019-03-09T03:42:19.396Z,8.42
2019-03-09T03:43:19.859Z,8.59
2019-03-09T03:44:20.326Z,8.42
2019-03-09T03:45:22.859Z,8.50
2019-03-09T03:46:23.331Z,8.52
2019-03-09T03:47:25.826Z,8.60
2019-03-09T03:48:26.708Z,8.45
2019-03-09T03:49:27.168Z,8.44
2019-03-09T03:50:27.618Z,8.54
2019-03-09T03:51:30.095Z,8.59
2019-03-09T03:52:30.542Z,8.54
2019-03-09T03:53:32.996Z,8.57
2019-03-09T03:54:33.438Z,8.60
2019-03-09T03:55:33.881Z,8.60
2019-03-09T03:56:34.328Z,8.64
2019-03-09T03:57:34.771Z,8.56
2019-03-09T03:58:35.225Z,8.54
2019-03-09T03:59:35.679Z,8.56
2019-03-09T04:00:36.123Z,8.60
2019-03-09T04:01:36.599Z,8.61
2019-03-09T04:02:37.056Z,8.63
2019-03-09T04:03:37.511Z,8.64
2019-03-09T04:04:37.989Z,8.63
2019-03-09T04:05:38.445Z,8.63
2019-03-09T04:06:39.084Z,8.69
2019-03-09T04:07:39.565Z,8.57
2019-03-09T04:08:40.029Z,8.64
2019-03-09T04:09:40.486Z,8.60
2019-03-09T04:10:40.946Z,8.61
2019-03-09T04:11:41.405Z,8.69
2019-03-09T04:12:41.882Z,8.57
2019-03-09T04:13:42.373Z,8.60
2019-03-09T04:14:42.848Z,8.64
2019-03-09T04:15:43.316Z,8.63
2019-03-09T04:16:43.789Z,8.66
2019-03-09T04:17:44.232Z,8.69
2019-03-09T04:18:44.675Z,8.63
2019-03-09T04:19:45.132Z,8.68
2019-03-09T04:20:45.578Z,8.66
2019-03-09T04:21:46.041Z,8.77
2019-03-09T04:22:46.496Z,8.74
2019-03-09T04:23:46.938Z,8.74
2019-03-09T04:24:47.385Z,8.71
2019-03-09T04:25:47.848Z,8.78
2019-03-09T04:26:48.345Z,8.75
2019-03-09T04:27:48.801Z,8.75
2019-03-09T04:28:49.241Z,8.81
2019-03-09T04:29:49.702Z,8.78
2019-03-09T04:30:50.169Z,8.79
2019-03-09T04:31:50.705Z,8.75
2019-03-09T04:32:51.149Z,8.81
2019-03-09T04:33:51.597Z,8.78
2019-03-09T04:34:52.036Z,8.77
2019-03-09T04:35:52.500Z,8.78
2019-03-09T04:36:53.192Z,8.81
2019-03-09T04:37:53.649Z,8.81
2019-03-09T04:38:54.160Z,8.79
2019-03-09T04:39:54.602Z,8.86
2019-03-09T04:40:55.039Z,8.81
2019-03-09T04:41:55.506Z,8.87
2019-03-09T04:42:55.950Z,8.89
2019-03-09T04:43:56.420Z,8.93
2019-03-09T04:44:56.862Z,8.89
2019-03-09T04:45:57.303Z,8.87
2019-03-09T04:46:57.757Z,8.95
2019-03-09T04:47:58.209Z,8.84
2019-03-09T04:48:58.650Z,8.87
2019-03-09T04:49:59.091Z,8.84
2019-03-09T04:50:59.544Z,8.84
2019-03-09T04:51:59.997Z,8.90
2019-03-09T04:53:00.439Z,8.92
2019-03-09T04:54:02.899Z,8.87
2019-03-09T04:55:03.414Z,8.95
2019-03-09T04:56:04.867Z,8.95
2019-03-09T04:57:05.339Z,8.95
2019-03-09T04:58:05.785Z,9.00
2019-03-09T04:59:06.230Z,9.00
2019-03-09T05:00:06.740Z,9.02
2019-03-09T05:01:07.184Z,8.96
2019-03-09T05:02:11.135Z,9.11
2019-03-09T05:03:11.595Z,9.02
2019-03-09T05:04:12.056Z,8.96
2019-03-09T05:05:12.495Z,9.02
2019-03-09T05:06:14.941Z,9.00
2019-03-09T05:07:15.392Z,8.97
2019-03-09T05:08:15.832Z,8.96
2019-03-09T05:09:16.282Z,8.93
2019-03-09T05:10:16.720Z,9.08
2019-03-09T05:11:17.180Z,8.90
2019-03-09T05:12:17.650Z,9.05
2019-03-09T05:13:18.104Z,8.90
2019-03-09T05:14:18.561Z,8.97
2019-03-09T05:15:19.007Z,9.02
2019-03-09T05:16:19.462Z,8.89
2019-03-09T05:17:19.934Z,8.96
2019-03-09T05:18:20.377Z,8.89
2019-03-09T05:19:20.830Z,8.87
2019-03-09T05:20:21.282Z,8.84
2019-03-09T05:21:21.719Z,8.90
2019-03-09T05:22:22.234Z,8.86
2019-03-09T05:23:22.678Z,8.77
2019-03-09T05:24:23.133Z,8.81
2019-03-09T05:25:23.566Z,8.82
2019-03-09T05:26:24.003Z,8.71
2019-03-09T05:27:24.456Z,8.69
2019-03-09T05:28:24.902Z,8.66
2019-03-09T05:29:25.335Z,8.60
2019-03-09T05:30:25.776Z,8.66
2019-03-09T05:31:26.264Z,8.59
2019-03-09T05:32:26.719Z,8.53
2019-03-09T05:33:27.204Z,8.52
2019-03-09T05:34:27.657Z,8.53
2019-03-09T05:35:28.403Z,8.42
2019-03-09T05:36:28.852Z,8.56
2019-03-09T05:37:29.305Z,8.52
2019-03-09T05:38:29.763Z,8.34
2019-03-09T05:39:30.213Z,8.41
2019-03-09T05:40:30.655Z,8.39
2019-03-09T05:41:31.096Z,8.38
2019-03-09T05:42:31.556Z,8.35
2019-03-09T05:43:31.991Z,8.44
2019-03-09T05:44:32.432Z,8.36
2019-03-09T05:45:32.886Z,8.32
2019-03-09T05:46:33.332Z,8.31
2019-03-09T05:47:33.798Z,8.31
2019-03-09T05:48:34.236Z,8.36
2019-03-09T05:49:34.682Z,8.28
2019-03-09T05:50:40.100Z,8.27
2019-03-09T05:51:40.533Z,8.39
2019-03-09T05:52:40.992Z,8.32
2019-03-09T05:53:41.431Z,8.32
2019-03-09T05:54:41.879Z,8.27
2019-03-09T05:55:42.321Z,8.27
2019-03-09T05:56:43.779Z,8.28
2019-03-09T05:57:44.231Z,8.32
2019-03-09T05:58:44.724Z,8.34
2019-03-09T05:59:45.187Z,8.28
2019-03-09T06:00:45.630Z,8.18
2019-03-09T06:01:46.077Z,8.18
2019-03-09T06:02:46.541Z,8.18
2019-03-09T06:03:46.979Z,8.27
2019-03-09T06:04:47.421Z,8.18
2019-03-09T06:05:47.931Z,8.20
2019-03-09T06:06:48.383Z,8.31
2019-03-09T06:07:49.151Z,8.13
2019-03-09T06:08:49.591Z,8.26
2019-03-09T06:09:50.039Z,8.28
2019-03-09T06:10:50.490Z,8.24
2019-03-09T06:11:50.926Z,8.27
2019-03-09T06:12:51.392Z,8.27
2019-03-09T06:13:51.830Z,8.34
2019-03-09T06:14:52.268Z,8.24
2019-03-09T06:15:52.705Z,8.32
2019-03-09T06:16:53.160Z,8.31
2019-03-09T06:17:53.611Z,8.38
2019-03-09T06:18:54.061Z,8.38
2019-03-09T06:19:54.525Z,8.41
2019-03-09T06:20:55.027Z,8.44
2019-03-09T06:21:55.476Z,8.36
2019-03-09T06:22:55.953Z,8.49
2019-03-09T06:23:56.395Z,8.39
2019-03-09T06:24:56.838Z,8.38
2019-03-09T06:25:57.286Z,8.56
2019-03-09T06:26:57.731Z,8.54
2019-03-09T06:27:58.311Z,8.54
2019-03-09T06:28:58.772Z,8.56
2019-03-09T06:29:59.217Z,8.63
2019-03-09T06:30:59.737Z,8.68
2019-03-09T06:32:00.194Z,8.63
2019-03-09T06:33:00.656Z,8.64
2019-03-09T06:34:01.098Z,8.71
2019-03-09T06:35:01.567Z,8.74
2019-03-09T06:36:02.103Z,8.77
2019-03-09T06:37:02.546Z,8.79
2019-03-09T06:38:03.017Z,8.78
2019-03-09T06:39:03.570Z,8.81
2019-03-09T06:40:04.024Z,8.87
2019-03-09T06:41:04.502Z,8.79
2019-03-09T06:42:04.942Z,8.78
2019-03-09T06:43:05.475Z,8.81
2019-03-09T06:44:10.881Z,8.84
2019-03-09T06:45:11.393Z,8.79
2019-03-09T06:46:11.905Z,8.90
2019-03-09T06:47:13.454Z,8.87
2019-03-09T06:48:13.939Z,8.93
2019-03-09T06:49:14.389Z,8.84
2019-03-09T06:50:14.830Z,8.86
2019-03-09T06:51:15.323Z,8.86
2019-03-09T06:52:15.764Z,8.95
2019-03-09T06:53:16.293Z,9.00
2019-03-09T06:54:16.735Z,8.97
2019-03-09T06:55:17.192Z,9.02
2019-03-09T06:56:17.956Z,8.95
2019-03-09T06:57:18.475Z,9.05
2019-03-09T06:58:18.936Z,9.09
2019-03-09T06:59:19.467Z,9.12
2019-03-09T07:00:19.903Z,9.18
2019-03-09T07:01:20.404Z,9.13
2019-03-09T07:02:21.607Z,9.22
2019-03-09T07:03:22.098Z,9.18
2019-03-09T07:04:22.572Z,9.19
2019-03-09T07:05:23.103Z,9.26
2019-03-09T07:06:23.555Z,9.22
2019-03-09T07:07:24.034Z,9.24
2019-03-09T07:08:24.480Z,9.27
2019-03-09T07:09:25.990Z,9.36
2019-03-09T07:10:26.438Z,9.45
2019-03-09T07:11:27.029Z,9.37
2019-03-09T07:12:27.462Z,9.51
2019-03-09T07:13:27.999Z,9.55
2019-03-09T07:14:28.440Z,9.58
2019-03-09T07:15:29.006Z,9.67
2019-03-09T07:16:29.451Z,9.66
2019-03-09T07:17:30.246Z,9.76
2019-03-09T07:18:30.713Z,9.82
2019-03-09T07:19:33.233Z,9.87
2019-03-09T07:20:33.675Z,9.81
2019-03-09T07:21:34.162Z,9.90
2019-03-09T07:22:34.606Z,9.90
2019-03-09T07:23:35.147Z,9.88
2019-03-09T07:24:35.583Z,9.85
2019-03-09T07:25:36.033Z,9.82
2019-03-09T07:26:36.473Z,9.90
2019-03-09T07:27:36.968Z,9.88
2019-03-09T07:28:37.509Z,9.91
2019-03-09T07:29:38.003Z,9.82
2019-03-09T07:30:38.459Z,9.87
2019-03-09T07:31:38.945Z,9.77
2019-03-09T07:32:39.391Z,9.88
2019-03-09T07:33:39.906Z,9.84
2019-03-09T07:34:40.345Z,9.87
2019-03-09T07:35:40.821Z,9.92
2019-03-09T07:36:41.279Z,10.03
2019-03-09T07:37:41.723Z,10.07
2019-03-09T07:38:42.169Z,10.13
2019-03-09T07:39:42.681Z,10.17
2019-03-09T07:40:43.118Z,10.18
2019-03-09T07:41:43.621Z,10.27
2019-03-09T07:42:44.064Z,10.25
2019-03-09T07:43:44.591Z,10.33
2019-03-09T07:44:45.025Z,10.23
2019-03-09T07:45:45.486Z,10.38
2019-03-09T07:46:45.922Z,10.36
2019-03-09T07:47:46.447Z,10.38
2019-03-09T07:48:46.911Z,10.38
2019-03-09T07:49:47.673Z,10.33
2019-03-09T07:50:48.131Z,10.38
2019-03-09T07:51:48.569Z,10.24
2019-03-09T07:52:49.007Z,10.33
2019-03-09T07:53:49.454Z,10.39
2019-03-09T07:54:51.969Z,10.28
2019-03-09T07:55:52.598Z,10.21
2019-03-09T07:56:53.045Z,10.34
2019-03-09T07:57:54.553Z,10.48
2019-03-09T07:58:55.017Z,10.39
2019-03-09T07:59:55.493Z,10.42
2019-03-09T08:00:55.942Z,10.39
2019-03-09T08:01:56.425Z,10.53
2019-03-09T08:02:56.874Z,10.49
2019-03-09T08:03:57.333Z,10.42
2019-03-09T08:04:57.784Z,10.51
2019-03-09T08:05:58.293Z,10.58
2019-03-09T08:06:58.733Z,10.62
2019-03-09T08:07:59.230Z,10.55
2019-03-09T08:08:59.689Z,10.58
2019-03-09T08:10:00.194Z,10.53
2019-03-09T08:11:00.805Z,10.55
2019-03-09T08:12:01.305Z,10.51
2019-03-09T08:13:01.742Z,10.51
2019-03-09T08:14:02.208Z,10.42
2019-03-09T08:15:02.642Z,10.51
2019-03-09T08:16:03.085Z,10.62
2019-03-09T08:17:03.526Z,10.61
2019-03-09T08:18:03.965Z,10.76
2019-03-09T08:19:04.440Z,10.80
2019-03-09T08:20:04.885Z,10.82
2019-03-09T08:21:05.368Z,10.92
2019-03-09T08:22:05.843Z,11.02
2019-03-09T08:23:06.398Z,11.12
2019-03-09T08:24:06.906Z,11.30
2019-03-09T08:25:07.571Z,11.34
2019-03-09T08:26:08.716Z,11.33
2019-03-09T08:27:09.158Z,11.40
2019-03-09T08:28:10.363Z,11.40
2019-03-09T08:29:10.851Z,11.40
2019-03-09T08:30:11.311Z,11.22
2019-03-09T08:31:11.774Z,11.27
2019-03-09T08:32:12.230Z,11.27
2019-03-09T08:33:12.722Z,11.38
2019-03-09T08:34:13.189Z,11.34
2019-03-09T08:35:13.642Z,11.41
2019-03-09T08:36:14.104Z,11.35
2019-03-09T08:37:14.550Z,11.27
2019-03-09T08:38:14.983Z,11.31
2019-03-09T08:39:15.451Z,11.33
2019-03-09T08:40:15.898Z,11.30
2019-03-09T08:41:16.353Z,11.31
2019-03-09T08:42:16.799Z,11.25
2019-03-09T08:43:17.256Z,11.22
2019-03-09T08:44:17.733Z,11.19
2019-03-09T08:45:18.216Z,11.27
2019-03-09T08:46:18.675Z,11.23
2019-03-09T08:47:19.157Z,11.20
2019-03-09T08:48:19.615Z,11.26
2019-03-09T08:49:20.114Z,11.33
2019-03-09T08:50:20.641Z,11.43
2019-03-09T08:51:21.117Z,11.38
2019-03-09T08:52:21.586Z,11.41
2019-03-09T08:53:22.070Z,11.35
2019-03-09T08:54:22.548Z,11.40
2019-03-09T08:55:23.015Z,11.44
2019-03-09T08:56:23.512Z,11.41
2019-03-09T08:57:23.995Z,11.48
2019-03-09T08:58:24.548Z,11.45
2019-03-09T08:59:25.071Z,11.59
2019-03-09T09:00:25.547Z,11.60
2019-03-09T09:01:26.075Z,11.70
2019-03-09T09:02:26.549Z,11.77
2019-03-09T09:03:27.042Z,11.77
2019-03-09T09:04:27.501Z,11.83
2019-03-09T09:05:27.956Z,11.93
2019-03-09T09:06:28.403Z,11.99
2019-03-09T09:07:28.847Z,12.11
2019-03-09T09:08:29.287Z,12.15
2019-03-09T09:09:29.764Z,12.10
2019-03-09T09:10:30.218Z,12.26
2019-03-09T09:11:30.670Z,12.29
2019-03-09T09:12:31.133Z,12.30
2019-03-09T09:13:31.584Z,12.32
2019-03-09T09:14:32.052Z,12.26
2019-03-09T09:15:32.501Z,12.36
2019-03-09T09:16:32.956Z,12.48
2019-03-09T09:17:33.405Z,12.48
2019-03-09T09:18:33.848Z,12.62
2019-03-09T09:19:34.323Z,12.65
2019-03-09T09:20:34.761Z,12.72
2019-03-09T09:21:35.210Z,12.70
2019-03-09T09:22:35.645Z,12.68
2019-03-09T09:23:36.087Z,12.66
2019-03-09T09:24:36.552Z,12.70
2019-03-09T09:25:37.015Z,12.66
2019-03-09T09:26:42.438Z,12.76
2019-03-09T09:27:42.878Z,12.87
2019-03-09T09:28:43.341Z,12.90
2019-03-09T09:29:43.899Z,12.86
2019-03-09T09:30:44.363Z,12.84
2019-03-09T09:31:44.813Z,12.87
2019-03-09T09:32:45.259Z,12.93
2019-03-09T09:33:45.691Z,12.80
2019-03-09T09:34:46.146Z,12.80
2019-03-09T09:35:46.730Z,12.72
2019-03-09T09:36:47.172Z,12.66
2019-03-09T09:37:47.627Z,12.78
2019-03-09T09:38:48.081Z,12.84
2019-03-09T09:39:48.567Z,12.88
2019-03-09T09:40:49.081Z,12.91
2019-03-09T09:41:49.519Z,12.83
2019-03-09T09:42:49.952Z,12.95
2019-03-09T09:43:50.407Z,13.03
2019-03-09T09:44:50.878Z,13.16
2019-03-09T09:45:51.324Z,13.26
2019-03-09T09:46:51.769Z,13.30
2019-03-09T09:47:52.208Z,13.31
2019-03-09T09:48:52.652Z,13.30
2019-03-09T09:49:53.121Z,13.30
2019-03-09T09:50:53.555Z,13.23
2019-03-09T09:51:53.997Z,13.20
2019-03-09T09:52:54.436Z,13.24
2019-03-09T09:53:54.877Z,13.13
2019-03-09T09:54:55.334Z,13.12
2019-03-09T09:55:55.772Z,13.12
2019-03-09T09:56:56.211Z,13.09
2019-03-09T09:57:56.679Z,13.11
2019-03-09T09:58:57.122Z,13.06
2019-03-09T09:59:57.584Z,13.03
2019-03-09T10:00:58.018Z,12.98
2019-03-09T10:01:58.464Z,13.03
2019-03-09T10:02:58.917Z,12.95
2019-03-09T10:03:59.407Z,13.01
2019-03-09T10:04:59.871Z,12.94
2019-03-09T10:06:00.319Z,12.84
2019-03-09T10:07:00.774Z,12.90
2019-03-09T10:08:01.229Z,12.78
2019-03-09T10:09:01.672Z,12.80
2019-03-09T10:10:02.397Z,12.75
2019-03-09T10:11:02.831Z,12.66
2019-03-09T10:12:03.278Z,12.68
2019-03-09T10:13:03.735Z,12.65
2019-03-09T10:14:04.185Z,12.69
2019-03-09T10:15:04.644Z,12.57
2019-03-09T10:16:05.089Z,12.61
2019-03-09T10:17:05.523Z,12.61
2019-03-09T10:18:05.974Z,12.61
2019-03-09T10:19:06.415Z,12.57
2019-03-09T10:20:06.888Z,12.61
2019-03-09T10:21:07.331Z,12.57
2019-03-09T10:22:07.782Z,12.69
2019-03-09T10:23:08.227Z,12.81
2019-03-09T10:24:08.698Z,12.80
2019-03-09T10:25:09.161Z,12.91
2019-03-09T10:26:09.613Z,13.03
2019-03-09T10:27:10.070Z,13.08
2019-03-09T10:28:10.512Z,13.17
2019-03-09T10:29:10.952Z,13.20
2019-03-09T10:30:11.411Z,13.26
2019-03-09T10:31:11.845Z,13.20
2019-03-09T10:32:12.284Z,13.20
2019-03-09T10:33:12.730Z,13.33
2019-03-09T10:34:13.172Z,13.30
2019-03-09T10:35:13.631Z,13.28
2019-03-09T10:36:14.079Z,13.39
2019-03-09T10:37:14.526Z,13.33
2019-03-09T10:38:14.964Z,13.45
2019-03-09T10:39:15.407Z,13.46
2019-03-09T10:40:15.863Z,13.43
2019-03-09T10:41:16.300Z,13.58
2019-03-09T10:42:16.756Z,13.64
2019-03-09T10:43:17.194Z,13.70
2019-03-09T10:44:17.646Z,13.70
2019-03-09T10:45:18.113Z,13.60
2019-03-09T10:46:18.568Z,13.64
2019-03-09T10:47:19.005Z,13.65
2019-03-09T10:48:19.445Z,13.76
2019-03-09T10:49:19.945Z,13.76
2019-03-09T10:50:20.422Z,13.78
2019-03-09T10:51:20.878Z,13.82
2019-03-09T10:52:21.325Z,13.76
2019-03-09T10:53:21.770Z,13.82
2019-03-09T10:54:22.223Z,13.86
2019-03-09T10:55:22.670Z,13.83
2019-03-09T10:56:23.114Z,13.91
2019-03-09T10:57:23.555Z,13.91
2019-03-09T10:58:23.991Z,13.85
2019-03-09T10:59:24.434Z,13.82
2019-03-09T11:00:24.903Z,13.76
2019-03-09T11:01:25.346Z,13.71
2019-03-09T11:02:25.793Z,13.75
2019-03-09T11:03:26.234Z,13.64
2019-03-09T11:04:27.892Z,13.54
2019-03-09T11:05:28.534Z,13.55
2019-03-09T11:06:29.980Z,13.70
2019-03-09T11:07:30.422Z,13.67
2019-03-09T11:08:31.917Z,13.61
2019-03-09T11:09:32.365Z,13.67
2019-03-09T11:10:32.825Z,13.75
2019-03-09T11:11:33.272Z,13.52
2019-03-09T11:12:34.730Z,13.71
2019-03-09T11:13:35.168Z,13.70
2019-03-09T11:14:35.615Z,13.58
2019-03-09T11:15:37.754Z,13.52
2019-03-09T11:16:39.436Z,13.36
2019-03-09T11:17:39.877Z,13.42
2019-03-09T11:18:42.324Z,13.31
2019-03-09T11:19:42.763Z,13.39
2019-03-09T11:20:44.218Z,13.37
2019-03-09T11:21:44.666Z,13.58
2019-03-09T11:22:45.115Z,13.55
2019-03-09T11:23:45.622Z,13.57
2019-03-09T11:24:46.166Z,13.65
2019-03-09T11:25:46.830Z,13.68
2019-03-09T11:26:47.293Z,13.67
2019-03-09T11:27:47.740Z,13.60
2019-03-09T11:28:48.182Z,13.75
2019-03-09T11:29:48.619Z,13.86
2019-03-09T11:30:49.133Z,14.00
2019-03-09T11:31:49.570Z,14.00
2019-03-09T11:32:52.090Z,14.11
2019-03-09T11:33:52.533Z,14.05
2019-03-09T11:34:53.981Z,14.15
2019-03-09T11:35:54.432Z,14.19
2019-03-09T11:36:54.883Z,14.40
2019-03-09T11:37:55.325Z,14.59
2019-03-09T11:38:55.771Z,14.92
2019-03-09T11:39:56.217Z,15.29
2019-03-09T11:40:59.731Z,15.52
2019-03-09T11:42:01.125Z,15.81
2019-03-09T11:43:01.562Z,15.88
2019-03-09T11:44:02.017Z,15.98
2019-03-09T11:45:03.498Z,15.63
2019-03-09T11:46:03.985Z,15.26
2019-03-09T11:47:04.425Z,14.94
2019-03-09T11:48:04.874Z,14.66
2019-03-09T11:49:06.325Z,14.37
2019-03-09T11:50:06.756Z,14.16
2019-03-09T11:51:07.229Z,13.98
2019-03-09T11:52:07.676Z,13.89
2019-03-09T11:53:08.128Z,13.94
2019-03-09T11:54:08.576Z,14.13
2019-03-09T11:55:09.024Z,14.15
2019-03-09T11:56:09.499Z,14.43
2019-03-09T11:57:09.949Z,14.44
2019-03-09T11:58:10.395Z,14.38
2019-03-09T11:59:11.851Z,14.66
2019-03-09T12:00:12.298Z,14.73
2019-03-09T12:01:12.780Z,14.97
2019-03-09T12:02:13.228Z,15.43
2019-03-09T12:03:15.680Z,15.98
2019-03-09T12:04:16.119Z,16.49
2019-03-09T12:05:18.571Z,16.49
2019-03-09T12:06:19.032Z,16.46
2019-03-09T12:07:19.477Z,16.21
2019-03-09T12:08:20.006Z,15.90
2019-03-09T12:09:21.448Z,15.62
2019-03-09T12:10:21.932Z,15.72
2019-03-09T12:11:23.466Z,15.47
2019-03-09T12:12:23.909Z,15.48
2019-03-09T12:13:24.363Z,15.27
2019-03-09T12:14:24.804Z,15.29
2019-03-09T12:15:25.253Z,15.22
2019-03-09T12:16:25.737Z,15.30
2019-03-09T12:17:27.191Z,15.32
2019-03-09T12:18:27.638Z,15.29
2019-03-09T12:19:28.113Z,15.27
2019-03-09T12:20:28.550Z,15.32
2019-03-09T12:21:29.026Z,15.43
2019-03-09T12:22:29.527Z,15.41
2019-03-09T12:23:29.980Z,15.54
2019-03-09T12:24:30.424Z,15.60
2019-03-09T12:25:30.879Z,15.30
2019-03-09T12:26:31.355Z,15.25
2019-03-09T12:27:31.795Z,15.10
2019-03-09T12:28:32.242Z,15.07
2019-03-09T12:29:32.683Z,15.12
2019-03-09T12:30:33.134Z,15.25
2019-03-09T12:31:33.610Z,15.41
2019-03-09T12:32:34.063Z,15.47
2019-03-09T12:33:34.507Z,15.27
2019-03-09T12:34:34.958Z,15.25
2019-03-09T12:35:35.409Z,15.14
2019-03-09T12:36:35.952Z,15.29
2019-03-09T12:37:43.039Z,15.43
2019-03-09T12:38:43.478Z,15.54
2019-03-09T12:39:43.920Z,15.70
2019-03-09T12:40:44.370Z,15.94
2019-03-09T12:41:44.837Z,16.17
2019-03-09T12:42:45.286Z,16.18
2019-03-09T12:43:45.806Z,16.29
2019-03-09T12:44:46.237Z,16.37
2019-03-09T12:45:46.690Z,16.37
2019-03-09T12:46:47.148Z,16.16
2019-03-09T12:47:47.589Z,16.06
2019-03-09T12:48:48.051Z,16.26
2019-03-09T12:49:48.500Z,16.43
2019-03-09T12:50:48.957Z,16.64
2019-03-09T12:51:49.421Z,16.51
2019-03-09T12:52:49.867Z,16.61
2019-03-09T12:53:50.334Z,16.57
2019-03-09T12:54:50.772Z,16.43
2019-03-09T12:55:51.230Z,16.25
2019-03-09T12:56:51.707Z,16.10
2019-03-09T12:57:53.184Z,16.00
2019-03-09T12:58:53.697Z,15.91
2019-03-09T12:59:54.184Z,16.10
2019-03-09T13:00:54.640Z,16.37
2019-03-09T13:01:55.145Z,16.50
2019-03-09T13:02:55.595Z,16.44
2019-03-09T13:03:56.061Z,16.31
2019-03-09T13:04:56.503Z,16.28
2019-03-09T13:05:56.945Z,16.40
2019-03-09T13:06:57.437Z,16.62
2019-03-09T13:07:57.886Z,16.57
2019-03-09T13:08:58.329Z,16.44
2019-03-09T13:09:58.786Z,16.39
2019-03-09T13:10:59.234Z,16.37
2019-03-09T13:11:59.744Z,16.39
2019-03-09T13:13:00.258Z,16.50
2019-03-09T13:14:01.729Z,16.17
2019-03-09T13:15:04.559Z,15.91
2019-03-09T13:16:06.252Z,15.69
2019-03-09T13:17:06.716Z,15.63